EGPB/LSI METAR and TAF weather

Enter ICAO airport designator
Station Type Date Time Source
EGPB METAR 2020/01/20 12:50 UTC NOAA

EGPB 201250Z 24032KT 6000 SCT009 BKN013 09/07 Q1030


Station Type Date Time Source
EGPB Decoded METAR 2020/01/20 12:50 UTC NOAA

Sumburgh Cape , United Kingdom (EGPB) 59-53N 001-18W
Jan 20, 2020 - 07:50 AM EST / 2020.01.20 1250 UTC
Wind: from the WSW (240 degrees) at 37 MPH (32 KT):0
Visibility: 3 mile(s):0
Sky conditions: mostly cloudy
Temperature: 48 F (9 C)
Dew Point: 44 F (7 C)
Relative Humidity: 87%
Pressure (altimeter): 30.42 in. Hg (1030 hPa)
ob: EGPB 201250Z 24032KT 6000 SCT009 BKN013 09/07 Q1030
cycle: 13

Station Type Date Time Source
EGPB TAF UTC NOAA

Error!

Example: see airport list